Terminal Aerodrome Forecast
Issued by NWS King Salmon, AK

Home | Current Version | Previous Version | Text Only | Print | Product List | Glossary On
Versions: 1 2 3 4 5 6 7 8 9 10 11 12 13 14 15 16 17 18 19 20 21 22 23 24 25 26 27 28 29 30 31 32 33 34 35 36 37 38 39 40 41 42 43
000
FTAK31 PANC 072203 AAB
TAFAKN
TAF AMD
PAKN 072203Z 0722/0818 18013G20KT P6SM VCSH BKN040 OVC060
     FM080300 20008KT P6SM SCT030 BKN050
     FM081200 VRB03KT P6SM VCSH BKN003 BKN012=

USA.gov is the U.S. government's official web portal to all federal, state and local government web resources and services.